sensor_id;sensor_type;location;lat;lon;timestamp;P1;durP1;ratioP1;P2;durP2;ratioP2
16033;SDS011;8121;51.418;6.998;2023-07-31T00:02:49;2.93;;;2.20;;
16033;SDS011;8121;51.418;6.998;2023-07-31T00:07:51;3.23;;;2.23;;
16033;SDS011;8121;51.418;6.998;2023-07-31T00:12:53;6.83;;;2.57;;
16033;SDS011;8121;51.418;6.998;2023-07-31T00:17:56;6.70;;;2.87;;
16033;SDS011;8121;51.418;6.998;2023-07-31T00:22:58;5.23;;;2.57;;
16033;SDS011;8121;51.418;6.998;2023-07-31T00:27:59;19.53;;;3.20;;
16033;SDS011;8121;51.418;6.998;2023-07-31T00:33:02;4.00;;;2.60;;
16033;SDS011;8121;51.418;6.998;2023-07-31T00:38:04;7.60;;;3.13;;
16033;SDS011;8121;51.418;6.998;2023-07-31T00:43:05;4.77;;;2.50;;
16033;SDS011;8121;51.418;6.998;2023-07-31T00:48:08;3.73;;;2.63;;
16033;SDS011;8121;51.418;6.998;2023-07-31T00:53:10;12.13;;;3.00;;
16033;SDS011;8121;51.418;6.998;2023-07-31T00:58:11;14.00;;;3.67;;
16033;SDS011;8121;51.418;6.998;2023-07-31T01:03:14;3.93;;;2.20;;
16033;SDS011;8121;51.418;6.998;2023-07-31T01:08:18;6.80;;;2.80;;
16033;SDS011;8121;51.418;6.998;2023-07-31T01:13:24;5.27;;;2.40;;
16033;SDS011;8121;51.418;6.998;2023-07-31T01:18:27;7.43;;;2.97;;
16033;SDS011;8121;51.418;6.998;2023-07-31T01:23:36;6.33;;;3.07;;
16033;SDS011;8121;51.418;6.998;2023-07-31T01:28:54;5.93;;;2.30;;
16033;SDS011;8121;51.418;6.998;2023-07-31T01:33:57;4.67;;;3.13;;
16033;SDS011;8121;51.418;6.998;2023-07-31T01:39:01;4.10;;;2.27;;
16033;SDS011;8121;51.418;6.998;2023-07-31T01:44:05;6.40;;;2.43;;
16033;SDS011;8121;51.418;6.998;2023-07-31T01:49:07;2.27;;;1.60;;
16033;SDS011;8121;51.418;6.998;2023-07-31T01:54:09;6.10;;;2.63;;
16033;SDS011;8121;51.418;6.998;2023-07-31T01:59:12;3.37;;;2.27;;
16033;SDS011;8121;51.418;6.998;2023-07-31T02:04:14;7.53;;;2.83;;
16033;SDS011;8121;51.418;6.998;2023-07-31T02:09:15;5.17;;;2.20;;
16033;SDS011;8121;51.418;6.998;2023-07-31T02:14:18;2.80;;;1.90;;
16033;SDS011;8121;51.418;6.998;2023-07-31T02:19:20;2.90;;;2.40;;
16033;SDS011;8121;51.418;6.998;2023-07-31T02:24:21;7.10;;;2.93;;
16033;SDS011;8121;51.418;6.998;2023-07-31T02:29:24;14.83;;;4.17;;
16033;SDS011;8121;51.418;6.998;2023-07-31T02:34:25;5.67;;;2.93;;
16033;SDS011;8121;51.418;6.998;2023-07-31T02:39:27;6.63;;;2.73;;
16033;SDS011;8121;51.418;6.998;2023-07-31T02:44:30;7.10;;;2.67;;
16033;SDS011;8121;51.418;6.998;2023-07-31T02:49:31;4.53;;;1.90;;
16033;SDS011;8121;51.418;6.998;2023-07-31T02:54:33;7.70;;;2.00;;
16033;SDS011;8121;51.418;6.998;2023-07-31T02:59:36;4.43;;;2.33;;
16033;SDS011;8121;51.418;6.998;2023-07-31T03:04:38;7.43;;;3.23;;
16033;SDS011;8121;51.418;6.998;2023-07-31T03:09:39;10.03;;;3.50;;
16033;SDS011;8121;51.418;6.998;2023-07-31T03:14:42;6.40;;;2.80;;
16033;SDS011;8121;51.418;6.998;2023-07-31T03:19:44;17.70;;;2.17;;
16033;SDS011;8121;51.418;6.998;2023-07-31T03:24:45;5.77;;;3.20;;
16033;SDS011;8121;51.418;6.998;2023-07-31T03:29:48;2.70;;;1.80;;
16033;SDS011;8121;51.418;6.998;2023-07-31T03:34:51;6.53;;;3.50;;
16033;SDS011;8121;51.418;6.998;2023-07-31T03:39:52;5.43;;;2.27;;
16033;SDS011;8121;51.418;6.998;2023-07-31T03:44:55;8.03;;;2.43;;
16033;SDS011;8121;51.418;6.998;2023-07-31T03:49:57;12.80;;;2.97;;
16033;SDS011;8121;51.418;6.998;2023-07-31T03:54:58;3.80;;;2.27;;
16033;SDS011;8121;51.418;6.998;2023-07-31T04:00:01;6.00;;;2.70;;
16033;SDS011;8121;51.418;6.998;2023-07-31T04:05:03;9.30;;;3.07;;
16033;SDS011;8121;51.418;6.998;2023-07-31T04:10:05;6.23;;;3.10;;
16033;SDS011;8121;51.418;6.998;2023-07-31T04:15:08;13.30;;;2.70;;
16033;SDS011;8121;51.418;6.998;2023-07-31T04:20:11;6.40;;;3.10;;
16033;SDS011;8121;51.418;6.998;2023-07-31T04:25:12;14.33;;;3.37;;
16033;SDS011;8121;51.418;6.998;2023-07-31T04:30:15;12.73;;;2.67;;
16033;SDS011;8121;51.418;6.998;2023-07-31T04:35:17;6.30;;;2.63;;
16033;SDS011;8121;51.418;6.998;2023-07-31T04:40:19;7.00;;;2.13;;
16033;SDS011;8121;51.418;6.998;2023-07-31T04:45:22;10.87;;;2.50;;
16033;SDS011;8121;51.418;6.998;2023-07-31T04:50:23;5.73;;;2.00;;
16033;SDS011;8121;51.418;6.998;2023-07-31T04:55:25;10.90;;;2.63;;
16033;SDS011;8121;51.418;6.998;2023-07-31T05:00:28;8.67;;;3.63;;
16033;SDS011;8121;51.418;6.998;2023-07-31T05:05:29;8.30;;;2.80;;
16033;SDS011;8121;51.418;6.998;2023-07-31T05:10:31;3.90;;;2.60;;
16033;SDS011;8121;51.418;6.998;2023-07-31T05:15:34;8.40;;;3.40;;
16033;SDS011;8121;51.418;6.998;2023-07-31T05:20:36;3.97;;;2.80;;
16033;SDS011;8121;51.418;6.998;2023-07-31T05:25:37;5.13;;;2.60;;
16033;SDS011;8121;51.418;6.998;2023-07-31T05:30:40;7.50;;;3.23;;
16033;SDS011;8121;51.418;6.998;2023-07-31T05:35:41;7.20;;;2.37;;
16033;SDS011;8121;51.418;6.998;2023-07-31T05:40:44;3.80;;;3.00;;
16033;SDS011;8121;51.418;6.998;2023-07-31T05:45:47;8.63;;;2.60;;
16033;SDS011;8121;51.418;6.998;2023-07-31T05:50:49;3.43;;;2.30;;
16033;SDS011;8121;51.418;6.998;2023-07-31T05:55:51;5.63;;;2.80;;
16033;SDS011;8121;51.418;6.998;2023-07-31T06:00:54;2.50;;;2.30;;
16033;SDS011;8121;51.418;6.998;2023-07-31T06:05:55;3.87;;;2.50;;
16033;SDS011;8121;51.418;6.998;2023-07-31T06:10:57;7.23;;;2.23;;
16033;SDS011;8121;51.418;6.998;2023-07-31T06:16:00;4.10;;;2.10;;
16033;SDS011;8121;51.418;6.998;2023-07-31T06:21:05;2.87;;;2.57;;
16033;SDS011;8121;51.418;6.998;2023-07-31T06:26:06;4.40;;;2.47;;
16033;SDS011;8121;51.418;6.998;2023-07-31T06:31:09;3.87;;;3.10;;
16033;SDS011;8121;51.418;6.998;2023-07-31T06:36:11;5.73;;;3.27;;
16033;SDS011;8121;51.418;6.998;2023-07-31T06:41:12;5.03;;;3.00;;
16033;SDS011;8121;51.418;6.998;2023-07-31T06:46:15;4.70;;;2.80;;
16033;SDS011;8121;51.418;6.998;2023-07-31T06:51:17;4.27;;;2.33;;
16033;SDS011;8121;51.418;6.998;2023-07-31T06:56:19;2.30;;;2.03;;
16033;SDS011;8121;51.418;6.998;2023-07-31T07:01:23;4.47;;;3.40;;
16033;SDS011;8121;51.418;6.998;2023-07-31T07:06:25;2.10;;;2.00;;
16033;SDS011;8121;51.418;6.998;2023-07-31T07:11:27;7.63;;;3.20;;
16033;SDS011;8121;51.418;6.998;2023-07-31T07:16:30;3.53;;;2.40;;
16033;SDS011;8121;51.418;6.998;2023-07-31T07:21:32;5.17;;;2.60;;
16033;SDS011;8121;51.418;6.998;2023-07-31T07:26:33;5.53;;;2.60;;
16033;SDS011;8121;51.418;6.998;2023-07-31T07:31:36;3.10;;;1.97;;
16033;SDS011;8121;51.418;6.998;2023-07-31T07:36:37;12.20;;;3.20;;
16033;SDS011;8121;51.418;6.998;2023-07-31T07:41:39;7.63;;;3.27;;
16033;SDS011;8121;51.418;6.998;2023-07-31T07:46:42;2.50;;;2.07;;
16033;SDS011;8121;51.418;6.998;2023-07-31T07:51:43;3.73;;;2.80;;
16033;SDS011;8121;51.418;6.998;2023-07-31T07:56:44;2.30;;;2.10;;
16033;SDS011;8121;51.418;6.998;2023-07-31T08:01:47;3.57;;;3.20;;
16033;SDS011;8121;51.418;6.998;2023-07-31T08:06:49;6.00;;;2.93;;
16033;SDS011;8121;51.418;6.998;2023-07-31T08:11:51;3.27;;;2.20;;
16033;SDS011;8121;51.418;6.998;2023-07-31T08:16:53;3.00;;;2.23;;
16033;SDS011;8121;51.418;6.998;2023-07-31T08:21:55;2.47;;;2.00;;
16033;SDS011;8121;51.418;6.998;2023-07-31T08:26:57;3.57;;;2.17;;
16033;SDS011;8121;51.418;6.998;2023-07-31T08:32:00;4.37;;;3.40;;
16033;SDS011;8121;51.418;6.998;2023-07-31T08:37:01;4.17;;;2.10;;
16033;SDS011;8121;51.418;6.998;2023-07-31T08:42:03;2.90;;;2.30;;
16033;SDS011;8121;51.418;6.998;2023-07-31T08:47:07;1.77;;;1.60;;
16033;SDS011;8121;51.418;6.998;2023-07-31T08:52:09;6.13;;;2.37;;
16033;SDS011;8121;51.418;6.998;2023-07-31T08:57:11;2.53;;;1.83;;
16033;SDS011;8121;51.418;6.998;2023-07-31T09:02:14;1.63;;;1.47;;
16033;SDS011;8121;51.418;6.998;2023-07-31T09:07:16;2.17;;;1.97;;
16033;SDS011;8121;51.418;6.998;2023-07-31T09:12:18;2.23;;;2.00;;
16033;SDS011;8121;51.418;6.998;2023-07-31T09:17:29;1.80;;;1.70;;
16033;SDS011;8121;51.418;6.998;2023-07-31T09:22:32;2.80;;;1.40;;
16033;SDS011;8121;51.418;6.998;2023-07-31T09:27:43;2.00;;;1.90;;
16033;SDS011;8121;51.418;6.998;2023-07-31T09:32:49;1.40;;;1.30;;
16033;SDS011;8121;51.418;6.998;2023-07-31T09:37:52;1.50;;;1.40;;
16033;SDS011;8121;51.418;6.998;2023-07-31T09:42:58;10.00;;;1.20;;
16033;SDS011;8121;51.418;6.998;2023-07-31T09:48:02;1.93;;;1.73;;
16033;SDS011;8121;51.418;6.998;2023-07-31T09:53:04;2.23;;;1.63;;
16033;SDS011;8121;51.418;6.998;2023-07-31T09:58:09;2.00;;;1.90;;
16033;SDS011;8121;51.418;6.998;2023-07-31T10:03:12;1.33;;;1.23;;
16033;SDS011;8121;51.418;6.998;2023-07-31T10:08:16;4.10;;;2.33;;
16033;SDS011;8121;51.418;6.998;2023-07-31T10:13:19;1.23;;;1.13;;
16033;SDS011;8121;51.418;6.998;2023-07-31T10:18:23;1.00;;;0.90;;
16033;SDS011;8121;51.418;6.998;2023-07-31T10:23:26;1.83;;;1.70;;
16033;SDS011;8121;51.418;6.998;2023-07-31T10:28:27;3.77;;;1.40;;
16033;SDS011;8121;51.418;6.998;2023-07-31T10:33:31;3.40;;;1.67;;
16033;SDS011;8121;51.418;6.998;2023-07-31T10:38:33;3.70;;;2.10;;
16033;SDS011;8121;51.418;6.998;2023-07-31T10:43:35;1.60;;;1.50;;
16033;SDS011;8121;51.418;6.998;2023-07-31T10:48:39;2.47;;;1.67;;
16033;SDS011;8121;51.418;6.998;2023-07-31T10:53:41;2.20;;;1.70;;
16033;SDS011;8121;51.418;6.998;2023-07-31T10:58:43;2.57;;;2.27;;
16033;SDS011;8121;51.418;6.998;2023-07-31T11:03:47;3.83;;;2.00;;
16033;SDS011;8121;51.418;6.998;2023-07-31T11:08:52;1.83;;;1.70;;
16033;SDS011;8121;51.418;6.998;2023-07-31T11:13:53;2.53;;;1.47;;
16033;SDS011;8121;51.418;6.998;2023-07-31T11:18:57;1.83;;;1.73;;
16033;SDS011;8121;51.418;6.998;2023-07-31T11:23:59;3.47;;;2.13;;
16033;SDS011;8121;51.418;6.998;2023-07-31T11:29:00;2.40;;;2.20;;
16033;SDS011;8121;51.418;6.998;2023-07-31T11:34:06;4.63;;;1.80;;
16033;SDS011;8121;51.418;6.998;2023-07-31T11:39:08;2.80;;;2.50;;
16033;SDS011;8121;51.418;6.998;2023-07-31T11:44:10;6.10;;;1.80;;
16033;SDS011;8121;51.418;6.998;2023-07-31T11:49:13;1.77;;;1.67;;
16033;SDS011;8121;51.418;6.998;2023-07-31T11:54:14;1.90;;;1.80;;
16033;SDS011;8121;51.418;6.998;2023-07-31T11:59:16;2.27;;;2.00;;
16033;SDS011;8121;51.418;6.998;2023-07-31T12:04:18;1.70;;;1.60;;
16033;SDS011;8121;51.418;6.998;2023-07-31T12:09:21;1.93;;;1.53;;
16033;SDS011;8121;51.418;6.998;2023-07-31T12:14:24;7.00;;;1.50;;
16033;SDS011;8121;51.418;6.998;2023-07-31T12:19:27;2.13;;;1.20;;
16033;SDS011;8121;51.418;6.998;2023-07-31T12:24:29;1.50;;;1.40;;
16033;SDS011;8121;51.418;6.998;2023-07-31T12:29:34;1.63;;;1.53;;
16033;SDS011;8121;51.418;6.998;2023-07-31T12:34:42;1.50;;;1.40;;
16033;SDS011;8121;51.418;6.998;2023-07-31T12:39:44;3.60;;;1.40;;
16033;SDS011;8121;51.418;6.998;2023-07-31T12:44:45;1.40;;;1.30;;
16033;SDS011;8121;51.418;6.998;2023-07-31T12:49:48;1.60;;;1.50;;
16033;SDS011;8121;51.418;6.998;2023-07-31T12:54:50;1.43;;;1.20;;
16033;SDS011;8121;51.418;6.998;2023-07-31T12:59:51;1.70;;;1.60;;
16033;SDS011;8121;51.418;6.998;2023-07-31T13:04:54;1.50;;;1.40;;
16033;SDS011;8121;51.418;6.998;2023-07-31T13:09:56;4.20;;;1.20;;
16033;SDS011;8121;51.418;6.998;2023-07-31T13:14:57;1.07;;;0.97;;
16033;SDS011;8121;51.418;6.998;2023-07-31T13:20:00;1.20;;;1.10;;
16033;SDS011;8121;51.418;6.998;2023-07-31T13:25:02;1.40;;;1.20;;
16033;SDS011;8121;51.418;6.998;2023-07-31T13:30:04;2.60;;;2.07;;
16033;SDS011;8121;51.418;6.998;2023-07-31T13:35:08;1.53;;;1.30;;
16033;SDS011;8121;51.418;6.998;2023-07-31T13:40:11;1.77;;;1.67;;
16033;SDS011;8121;51.418;6.998;2023-07-31T13:45:12;2.33;;;1.60;;
16033;SDS011;8121;51.418;6.998;2023-07-31T13:50:15;1.67;;;1.57;;
16033;SDS011;8121;51.418;6.998;2023-07-31T13:55:19;1.80;;;1.60;;
16033;SDS011;8121;51.418;6.998;2023-07-31T14:00:20;2.23;;;1.90;;
16033;SDS011;8121;51.418;6.998;2023-07-31T14:05:23;1.93;;;1.60;;
16033;SDS011;8121;51.418;6.998;2023-07-31T14:10:25;1.43;;;1.33;;
16033;SDS011;8121;51.418;6.998;2023-07-31T14:15:26;4.03;;;1.60;;
16033;SDS011;8121;51.418;6.998;2023-07-31T14:20:30;3.53;;;1.90;;
16033;SDS011;8121;51.418;6.998;2023-07-31T14:25:31;2.47;;;2.27;;
16033;SDS011;8121;51.418;6.998;2023-07-31T14:30:33;3.13;;;2.43;;
16033;SDS011;8121;51.418;6.998;2023-07-31T14:41:32;2.63;;;1.80;;
16033;SDS011;8121;51.418;6.998;2023-07-31T14:46:33;3.30;;;2.00;;
16033;SDS011;8121;51.418;6.998;2023-07-31T14:51:35;3.13;;;1.90;;
16033;SDS011;8121;51.418;6.998;2023-07-31T14:56:38;9.60;;;2.87;;
16033;SDS011;8121;51.418;6.998;2023-07-31T15:01:39;2.30;;;2.20;;
16033;SDS011;8121;51.418;6.998;2023-07-31T15:06:40;3.37;;;2.33;;
16033;SDS011;8121;51.418;6.998;2023-07-31T15:11:43;3.87;;;2.37;;
16033;SDS011;8121;51.418;6.998;2023-07-31T15:16:45;2.27;;;1.93;;
16033;SDS011;8121;51.418;6.998;2023-07-31T15:21:46;4.03;;;2.53;;
16033;SDS011;8121;51.418;6.998;2023-07-31T15:26:49;2.70;;;2.07;;
16033;SDS011;8121;51.418;6.998;2023-07-31T15:31:51;4.60;;;3.23;;
16033;SDS011;8121;51.418;6.998;2023-07-31T15:36:52;6.03;;;2.60;;
16033;SDS011;8121;51.418;6.998;2023-07-31T15:41:55;2.40;;;1.90;;
16033;SDS011;8121;51.418;6.998;2023-07-31T15:46:58;2.73;;;2.53;;
16033;SDS011;8121;51.418;6.998;2023-07-31T15:51:59;5.00;;;2.77;;
16033;SDS011;8121;51.418;6.998;2023-07-31T15:57:03;2.77;;;2.53;;
16033;SDS011;8121;51.418;6.998;2023-07-31T16:02:04;3.57;;;2.80;;
16033;SDS011;8121;51.418;6.998;2023-07-31T16:07:06;7.33;;;2.87;;
16033;SDS011;8121;51.418;6.998;2023-07-31T16:12:09;2.87;;;2.60;;
16033;SDS011;8121;51.418;6.998;2023-07-31T16:17:11;4.57;;;2.50;;
16033;SDS011;8121;51.418;6.998;2023-07-31T16:22:13;2.20;;;2.03;;
16033;SDS011;8121;51.418;6.998;2023-07-31T16:27:16;4.70;;;2.87;;
16033;SDS011;8121;51.418;6.998;2023-07-31T16:32:19;3.40;;;2.03;;
16033;SDS011;8121;51.418;6.998;2023-07-31T16:37:21;4.10;;;2.60;;
16033;SDS011;8121;51.418;6.998;2023-07-31T16:42:24;3.57;;;2.63;;
16033;SDS011;8121;51.418;6.998;2023-07-31T16:47:26;2.20;;;2.00;;
16033;SDS011;8121;51.418;6.998;2023-07-31T16:52:27;1.90;;;1.80;;
16033;SDS011;8121;51.418;6.998;2023-07-31T16:57:30;1.77;;;1.67;;
16033;SDS011;8121;51.418;6.998;2023-07-31T17:02:32;2.57;;;2.37;;
16033;SDS011;8121;51.418;6.998;2023-07-31T17:07:33;1.73;;;1.57;;
16033;SDS011;8121;51.418;6.998;2023-07-31T17:12:36;7.37;;;1.90;;
16033;SDS011;8121;51.418;6.998;2023-07-31T17:17:38;2.60;;;1.70;;
16033;SDS011;8121;51.418;6.998;2023-07-31T17:22:40;1.50;;;1.40;;
16033;SDS011;8121;51.418;6.998;2023-07-31T17:27:45;6.10;;;2.43;;
16033;SDS011;8121;51.418;6.998;2023-07-31T17:32:47;5.67;;;2.03;;
16033;SDS011;8121;51.418;6.998;2023-07-31T17:37:49;3.77;;;2.67;;
16033;SDS011;8121;51.418;6.998;2023-07-31T17:42:52;2.50;;;2.30;;
16033;SDS011;8121;51.418;6.998;2023-07-31T17:47:53;2.70;;;1.80;;
16033;SDS011;8121;51.418;6.998;2023-07-31T17:52:55;2.20;;;1.83;;
16033;SDS011;8121;51.418;6.998;2023-07-31T17:57:58;8.30;;;1.67;;
16033;SDS011;8121;51.418;6.998;2023-07-31T18:02:59;6.70;;;1.70;;
16033;SDS011;8121;51.418;6.998;2023-07-31T18:08:01;1.83;;;1.20;;
16033;SDS011;8121;51.418;6.998;2023-07-31T18:13:04;2.33;;;1.70;;
16033;SDS011;8121;51.418;6.998;2023-07-31T18:18:05;1.43;;;1.33;;
16033;SDS011;8121;51.418;6.998;2023-07-31T18:23:07;1.40;;;1.30;;
16033;SDS011;8121;51.418;6.998;2023-07-31T18:28:10;1.63;;;1.30;;
16033;SDS011;8121;51.418;6.998;2023-07-31T18:33:12;1.40;;;1.30;;
16033;SDS011;8121;51.418;6.998;2023-07-31T18:38:14;5.10;;;1.53;;
16033;SDS011;8121;51.418;6.998;2023-07-31T18:43:17;1.20;;;1.10;;
16033;SDS011;8121;51.418;6.998;2023-07-31T18:48:18;1.43;;;1.20;;
16033;SDS011;8121;51.418;6.998;2023-07-31T18:53:20;1.27;;;0.97;;
16033;SDS011;8121;51.418;6.998;2023-07-31T18:58:23;3.00;;;1.17;;
16033;SDS011;8121;51.418;6.998;2023-07-31T19:03:24;0.90;;;0.90;;
16033;SDS011;8121;51.418;6.998;2023-07-31T19:08:26;2.80;;;1.27;;
16033;SDS011;8121;51.418;6.998;2023-07-31T19:13:29;1.33;;;1.10;;
16033;SDS011;8121;51.418;6.998;2023-07-31T19:18:31;1.60;;;1.50;;
16033;SDS011;8121;51.418;6.998;2023-07-31T19:23:32;0.97;;;0.87;;
16033;SDS011;8121;51.418;6.998;2023-07-31T19:28:35;1.23;;;1.00;;
16033;SDS011;8121;51.418;6.998;2023-07-31T19:33:37;1.63;;;1.10;;
16033;SDS011;8121;51.418;6.998;2023-07-31T19:38:38;3.27;;;0.83;;
16033;SDS011;8121;51.418;6.998;2023-07-31T19:43:41;2.33;;;0.87;;
16033;SDS011;8121;51.418;6.998;2023-07-31T19:48:43;0.80;;;0.80;;
16033;SDS011;8121;51.418;6.998;2023-07-31T19:53:45;3.53;;;0.90;;
16033;SDS011;8121;51.418;6.998;2023-07-31T19:58:48;0.97;;;0.83;;
16033;SDS011;8121;51.418;6.998;2023-07-31T20:03:49;1.27;;;0.60;;
16033;SDS011;8121;51.418;6.998;2023-07-31T20:08:51;1.67;;;1.00;;
16033;SDS011;8121;51.418;6.998;2023-07-31T20:13:54;1.57;;;1.10;;
16033;SDS011;8121;51.418;6.998;2023-07-31T20:18:55;1.70;;;0.87;;
16033;SDS011;8121;51.418;6.998;2023-07-31T20:23:57;1.17;;;0.97;;
16033;SDS011;8121;51.418;6.998;2023-07-31T20:29:00;2.60;;;0.70;;
16033;SDS011;8121;51.418;6.998;2023-07-31T20:34:01;1.93;;;1.00;;
16033;SDS011;8121;51.418;6.998;2023-07-31T20:39:07;1.83;;;1.27;;
16033;SDS011;8121;51.418;6.998;2023-07-31T20:44:10;3.77;;;1.00;;
16033;SDS011;8121;51.418;6.998;2023-07-31T20:49:11;1.93;;;0.97;;
16033;SDS011;8121;51.418;6.998;2023-07-31T20:54:13;0.90;;;0.70;;
16033;SDS011;8121;51.418;6.998;2023-07-31T20:59:17;1.43;;;0.90;;
16033;SDS011;8121;51.418;6.998;2023-07-31T21:04:18;0.70;;;0.60;;
16033;SDS011;8121;51.418;6.998;2023-07-31T21:09:20;1.40;;;0.60;;
16033;SDS011;8121;51.418;6.998;2023-07-31T21:14:23;0.80;;;0.70;;
16033;SDS011;8121;51.418;6.998;2023-07-31T21:19:24;0.80;;;0.80;;
16033;SDS011;8121;51.418;6.998;2023-07-31T21:24:26;0.80;;;0.60;;
16033;SDS011;8121;51.418;6.998;2023-07-31T21:29:29;1.00;;;0.70;;
16033;SDS011;8121;51.418;6.998;2023-07-31T21:34:30;1.53;;;0.67;;
16033;SDS011;8121;51.418;6.998;2023-07-31T21:39:32;2.60;;;0.60;;
16033;SDS011;8121;51.418;6.998;2023-07-31T21:44:34;0.90;;;0.67;;
16033;SDS011;8121;51.418;6.998;2023-07-31T21:49:36;0.90;;;0.80;;
16033;SDS011;8121;51.418;6.998;2023-07-31T21:54:37;0.70;;;0.60;;
16033;SDS011;8121;51.418;6.998;2023-07-31T21:59:40;0.77;;;0.60;;
16033;SDS011;8121;51.418;6.998;2023-07-31T22:04:42;1.53;;;0.80;;
16033;SDS011;8121;51.418;6.998;2023-07-31T22:09:44;0.90;;;0.63;;
16033;SDS011;8121;51.418;6.998;2023-07-31T22:14:47;1.40;;;0.80;;
16033;SDS011;8121;51.418;6.998;2023-07-31T22:19:48;3.63;;;0.63;;
16033;SDS011;8121;51.418;6.998;2023-07-31T22:24:50;0.97;;;0.97;;
16033;SDS011;8121;51.418;6.998;2023-07-31T22:29:53;0.80;;;0.60;;
16033;SDS011;8121;51.418;6.998;2023-07-31T22:34:54;0.70;;;0.70;;
16033;SDS011;8121;51.418;6.998;2023-07-31T22:39:56;2.50;;;0.90;;
16033;SDS011;8121;51.418;6.998;2023-07-31T22:44:58;2.70;;;0.70;;
16033;SDS011;8121;51.418;6.998;2023-07-31T22:50:00;0.80;;;0.50;;
16033;SDS011;8121;51.418;6.998;2023-07-31T22:55:01;0.70;;;0.50;;
16033;SDS011;8121;51.418;6.998;2023-07-31T23:00:05;0.70;;;0.57;;
16033;SDS011;8121;51.418;6.998;2023-07-31T23:05:08;0.80;;;0.73;;
16033;SDS011;8121;51.418;6.998;2023-07-31T23:10:09;0.60;;;0.50;;
16033;SDS011;8121;51.418;6.998;2023-07-31T23:15:13;0.93;;;0.70;;
16033;SDS011;8121;51.418;6.998;2023-07-31T23:20:14;0.60;;;0.50;;
16033;SDS011;8121;51.418;6.998;2023-07-31T23:25:16;0.70;;;0.50;;
16033;SDS011;8121;51.418;6.998;2023-07-31T23:30:19;0.70;;;0.60;;
16033;SDS011;8121;51.418;6.998;2023-07-31T23:35:20;0.60;;;0.60;;
16033;SDS011;8121;51.418;6.998;2023-07-31T23:40:22;0.70;;;0.60;;
16033;SDS011;8121;51.418;6.998;2023-07-31T23:45:25;0.90;;;0.70;;
16033;SDS011;8121;51.418;6.998;2023-07-31T23:50:26;0.80;;;0.77;;
16033;SDS011;8121;51.418;6.998;2023-07-31T23:55:28;0.80;;;0.63;;
